Time,TemperatureF,DewpointF,PressureIn,WindDirection,WindDirectionDegrees,WindSpeedMPH,WindSpeedGustMPH,Humidity,HourlyPrecipIn,Conditions,Clouds,dailyrainin,SoftwareType,DateUTC
2013-10-14 00:05:00,64.1,60.8,30.13,ENE,75,0.0,0.0,89,0.00,,,0.00,Wunderground v.1.15,2013-10-14 04:05:00,
2013-10-14 00:10:00,64.0,60.7,30.12,ENE,75,0.0,0.0,89,0.00,,,0.00,Wunderground v.1.15,2013-10-14 04:10:00,
2013-10-14 00:15:00,64.0,60.7,30.12,ENE,75,0.0,0.0,89,0.00,,,0.00,Wunderground v.1.15,2013-10-14 04:15:00,
2013-10-14 00:20:00,64.0,60.7,30.12,ENE,75,0.0,0.0,89,0.00,,,0.00,Wunderground v.1.15,2013-10-14 04:20:00,
2013-10-14 00:26:00,64.1,60.8,30.12,ENE,75,0.0,0.0,89,0.00,,,0.00,Wunderground v.1.15,2013-10-14 04:26:00,
2013-10-14 00:31:00,64.1,60.8,30.12,ENE,75,0.0,0.0,89,0.00,,,0.00,Wunderground v.1.15,2013-10-14 04:31:00,
2013-10-14 00:37:00,64.1,60.8,30.12,ENE,75,0.0,0.0,89,0.00,,,0.00,Wunderground v.1.15,2013-10-14 04:37:00,
2013-10-14 00:42:00,64.0,60.7,30.12,ENE,75,0.0,0.0,89,0.00,,,0.00,Wunderground v.1.15,2013-10-14 04:42:00,
2013-10-14 00:46:00,28.0,22.6,30.48,NE,47,0.0,0.0,80,0.00,,,0.00,Wunderground v.1.15,2013-10-14 04:46:00,
2013-10-14 00:47:00,63.8,60.2,30.12,ENE,75,0.0,0.0,88,0.00,,,0.00,Wunderground v.1.15,2013-10-14 04:47:00,
2013-10-14 00:48:00,27.9,22.5,30.47,NE,47,0.0,0.0,80,0.00,,,0.00,Wunderground v.1.15,2013-10-14 04:48:00,
2013-10-14 00:49:00,27.8,22.4,30.47,NE,47,0.0,0.0,80,0.00,,,0.00,Wunderground v.1.15,2013-10-14 04:49:00,
2013-10-14 00:50:00,27.8,22.4,30.47,NE,47,0.0,0.0,80,0.00,,,0.00,Wunderground v.1.15,2013-10-14 04:50:00,
2013-10-14 00:51:00,27.8,22.7,30.47,NE,47,0.0,0.0,81,0.00,,,0.00,Wunderground v.1.15,2013-10-14 04:51:00,
2013-10-14 00:52:00,63.3,59.7,30.12,ENE,75,0.0,0.0,88,0.00,,,0.00,Wunderground v.1.15,2013-10-14 04:52:00,
2013-10-14 00:53:00,27.7,22.6,30.47,NE,47,0.0,0.0,81,0.00,,,0.00,Wunderground v.1.15,2013-10-14 04:53:00,
2013-10-14 00:54:00,27.7,22.6,30.47,NE,47,0.0,0.0,81,0.00,,,0.00,Wunderground v.1.15,2013-10-14 04:54:00,
2013-10-14 00:55:00,27.7,22.6,30.47,NE,47,0.0,0.0,81,0.00,,,0.00,Wunderground v.1.15,2013-10-14 04:55:00,
2013-10-14 00:56:00,27.7,22.6,30.47,NE,47,0.0,0.0,81,0.00,,,0.00,Wunderground v.1.15,2013-10-14 04:56:00,
2013-10-14 00:57:00,62.8,59.5,30.12,ENE,75,0.0,0.0,89,0.00,,,0.00,Wunderground v.1.15,2013-10-14 04:57:00,
2013-10-14 00:58:00,27.7,22.6,30.47,NE,47,0.0,0.0,81,0.00,,,0.00,Wunderground v.1.15,2013-10-14 04:58:00,
2013-10-14 00:59:00,27.6,22.5,30.47,NE,47,0.0,0.0,81,0.00,,,0.00,Wunderground v.1.15,2013-10-14 04:59:00,
2013-10-14 01:00:00,27.6,22.5,30.47,NE,47,0.0,0.0,81,0.00,,,0.00,Wunderground v.1.15,2013-10-14 05:00:00,
2013-10-14 01:01:00,27.6,22.5,30.47,NE,47,0.0,0.0,81,0.00,,,0.00,Wunderground v.1.15,2013-10-14 05:01:00,
2013-10-14 01:02:00,62.3,59.0,30.12,ENE,75,0.0,0.0,89,0.00,,,0.00,Wunderground v.1.15,2013-10-14 05:02:00,
2013-10-14 01:03:00,27.6,22.5,30.47,NE,47,0.0,0.0,81,0.00,,,0.00,Wunderground v.1.15,2013-10-14 05:03:00,
2013-10-14 01:04:00,27.6,22.5,30.47,NE,47,0.0,0.0,81,0.00,,,0.00,Wunderground v.1.15,2013-10-14 05:04:00,
2013-10-14 01:05:00,27.6,22.5,30.47,NE,47,0.0,0.0,81,0.00,,,0.00,Wunderground v.1.15,2013-10-14 05:05:00,
2013-10-14 01:06:00,27.6,22.5,30.47,NE,47,0.0,0.0,81,0.00,,,0.00,Wunderground v.1.15,2013-10-14 05:06:00,
2013-10-14 01:07:00,62.0,59.0,30.12,ENE,75,0.0,0.0,90,0.00,,,0.00,Wunderground v.1.15,2013-10-14 05:07:00,
2013-10-14 01:08:00,27.6,22.5,30.47,NE,47,0.0,0.0,81,0.00,,,0.00,Wunderground v.1.15,2013-10-14 05:08:00,
2013-10-14 01:09:00,27.6,22.8,30.47,NE,47,0.0,0.0,82,0.00,,,0.00,Wunderground v.1.15,2013-10-14 05:09:00,
2013-10-14 01:10:00,27.6,22.8,30.46,NE,47,0.0,0.0,82,0.00,,,0.00,Wunderground v.1.15,2013-10-14 05:10:00,
2013-10-14 01:11:00,27.6,22.8,30.47,NE,47,0.0,0.0,82,0.00,,,0.00,Wunderground v.1.15,2013-10-14 05:11:00,
2013-10-14 01:12:00,27.6,22.8,30.47,NE,47,0.0,0.0,82,0.00,,,0.00,Wunderground v.1.15,2013-10-14 05:12:00,
2013-10-14 01:13:00,61.8,58.8,30.12,ENE,75,0.0,0.0,90,0.00,,,0.00,Wunderground v.1.15,2013-10-14 05:13:00,
2013-10-14 01:14:00,27.6,22.8,30.47,NE,47,0.0,0.0,82,0.00,,,0.00,Wunderground v.1.15,2013-10-14 05:14:00,
2013-10-14 01:15:00,27.5,23.0,30.47,NE,47,0.0,0.0,83,0.00,,,0.00,Wunderground v.1.15,2013-10-14 05:15:00,
2013-10-14 01:16:00,27.6,23.1,30.47,NE,47,0.0,0.0,83,0.00,,,0.00,Wunderground v.1.15,2013-10-14 05:16:00,
2013-10-14 01:17:00,27.5,23.0,30.47,NE,47,0.0,0.0,83,0.00,,,0.00,Wunderground v.1.15,2013-10-14 05:17:00,
2013-10-14 01:18:00,61.5,58.8,30.12,ENE,75,0.0,0.0,91,0.00,,,0.00,Wunderground v.1.15,2013-10-14 05:18:00,
2013-10-14 01:19:00,27.5,22.7,30.47,NE,47,0.0,0.0,82,0.00,,,0.00,Wunderground v.1.15,2013-10-14 05:19:00,
2013-10-14 01:20:00,27.5,22.7,30.46,NE,47,0.0,0.0,82,0.00,,,0.00,Wunderground v.1.15,2013-10-14 05:20:00,
2013-10-14 01:21:00,27.4,22.6,30.47,NE,47,0.0,0.0,82,0.00,,,0.00,Wunderground v.1.15,2013-10-14 05:21:00,
2013-10-14 01:22:00,27.4,22.6,30.47,NE,47,0.0,0.0,82,0.00,,,0.00,Wunderground v.1.15,2013-10-14 05:22:00,
2013-10-14 01:23:00,61.3,58.7,30.12,ENE,75,0.0,0.0,91,0.00,,,0.00,Wunderground v.1.15,2013-10-14 05:23:00,
2013-10-14 01:24:00,27.3,22.5,30.47,NE,47,0.0,0.0,82,0.00,,,0.00,Wunderground v.1.15,2013-10-14 05:24:00,
2013-10-14 01:25:00,27.2,22.4,30.47,NE,47,0.0,0.0,82,0.00,,,0.00,Wunderground v.1.15,2013-10-14 05:25:00,
2013-10-14 01:26:00,27.2,22.4,30.47,NE,47,0.0,0.0,82,0.00,,,0.00,Wunderground v.1.15,2013-10-14 05:26:00,
2013-10-14 01:27:00,27.2,22.4,30.47,NE,47,0.0,0.0,82,0.00,,,0.00,Wunderground v.1.15,2013-10-14 05:27:00,
2013-10-14 01:28:00,27.1,22.3,30.47,NE,47,0.0,0.0,82,0.00,,,0.00,Wunderground v.1.15,2013-10-14 05:28:00,
2013-10-14 01:29:00,61.1,58.8,30.12,ENE,75,0.0,0.0,92,0.00,,,0.00,Wunderground v.1.15,2013-10-14 05:29:00,
2013-10-14 01:30:00,27.1,22.3,30.47,NE,47,0.0,0.0,82,0.00,,,0.00,Wunderground v.1.15,2013-10-14 05:30:00,
2013-10-14 01:31:00,27.1,22.3,30.46,NE,47,0.0,0.0,82,0.00,,,0.00,Wunderground v.1.15,2013-10-14 05:31:00,
2013-10-14 01:32:00,27.1,22.6,30.47,NE,47,0.0,0.0,83,0.00,,,0.00,Wunderground v.1.15,2013-10-14 05:32:00,
2013-10-14 01:33:00,27.1,22.6,30.47,NE,47,0.0,0.0,83,0.00,,,0.00,Wunderground v.1.15,2013-10-14 05:33:00,
2013-10-14 01:34:00,27.0,22.5,30.46,NE,47,0.0,0.0,83,0.00,,,0.00,Wunderground v.1.15,2013-10-14 05:34:00,
2013-10-14 01:35:00,61.0,58.7,30.12,ENE,75,0.0,0.0,92,0.00,,,0.00,Wunderground v.1.15,2013-10-14 05:35:00,
2013-10-14 01:36:00,27.0,22.5,30.47,NE,47,0.0,0.0,83,0.00,,,0.00,Wunderground v.1.15,2013-10-14 05:36:00,
2013-10-14 01:37:00,27.0,22.5,30.46,NE,47,0.0,0.0,83,0.00,,,0.00,Wunderground v.1.15,2013-10-14 05:37:00,
2013-10-14 01:38:00,27.0,22.5,30.47,NE,47,0.0,0.0,83,0.00,,,0.00,Wunderground v.1.15,2013-10-14 05:38:00,
2013-10-14 01:39:00,27.0,22.8,30.46,NE,47,0.0,0.0,84,0.00,,,0.00,Wunderground v.1.15,2013-10-14 05:39:00,
2013-10-14 01:40:00,61.7,60.3,30.12,ENE,75,0.0,0.0,95,0.00,,,0.00,Wunderground v.1.15,2013-10-14 05:40:00,
2013-10-14 01:41:00,27.0,22.8,30.47,NE,47,0.0,0.0,84,0.00,,,0.00,Wunderground v.1.15,2013-10-14 05:41:00,
2013-10-14 01:42:00,27.0,22.5,30.46,NE,47,0.0,0.0,83,0.00,,,0.00,Wunderground v.1.15,2013-10-14 05:42:00,
2013-10-14 01:43:00,27.0,22.5,30.46,NE,47,0.0,0.0,83,0.00,,,0.00,Wunderground v.1.15,2013-10-14 05:43:00,
2013-10-14 01:44:00,27.0,22.5,30.46,NE,47,0.0,0.0,83,0.00,,,0.00,Wunderground v.1.15,2013-10-14 05:44:00,
2013-10-14 01:45:00,62.2,60.8,30.12,ENE,75,0.0,0.0,95,0.00,,,0.00,Wunderground v.1.15,2013-10-14 05:45:00,
2013-10-14 01:46:00,27.0,22.5,30.46,NE,47,0.0,0.0,83,0.00,,,0.00,Wunderground v.1.15,2013-10-14 05:46:00,
2013-10-14 01:47:00,26.9,22.4,30.46,NE,47,0.0,0.0,83,0.00,,,0.00,Wunderground v.1.15,2013-10-14 05:47:00,
2013-10-14 01:48:00,26.9,22.4,30.47,NE,47,0.0,0.0,83,0.00,,,0.00,Wunderground v.1.15,2013-10-14 05:48:00,
2013-10-14 01:49:00,26.9,22.4,30.47,NE,47,0.0,0.0,83,0.00,,,0.00,Wunderground v.1.15,2013-10-14 05:49:00,
2013-10-14 01:50:00,62.6,60.8,30.12,ENE,75,0.0,0.0,94,0.00,,,0.00,Wunderground v.1.15,2013-10-14 05:50:00,
2013-10-14 01:51:00,26.9,22.4,30.46,NE,47,0.0,0.0,83,0.00,,,0.00,Wunderground v.1.15,2013-10-14 05:51:00,
2013-10-14 01:52:00,26.9,22.4,30.46,NE,47,0.0,0.0,83,0.00,,,0.00,Wunderground v.1.15,2013-10-14 05:52:00,
2013-10-14 01:53:00,26.9,22.4,30.46,NE,47,0.0,0.0,83,0.00,,,0.00,Wunderground v.1.15,2013-10-14 05:53:00,
2013-10-14 01:54:00,26.9,22.4,30.46,NE,47,0.0,0.0,83,0.00,,,0.00,Wunderground v.1.15,2013-10-14 05:54:00,
2013-10-14 01:55:00,62.9,61.1,30.12,ENE,75,0.0,0.0,94,0.00,,,0.00,Wunderground v.1.15,2013-10-14 05:55:00,
2013-10-14 01:56:00,26.8,22.3,30.46,NE,47,0.0,0.0,83,0.00,,,0.00,Wunderground v.1.15,2013-10-14 05:56:00,
2013-10-14 01:57:00,26.8,22.3,30.46,NE,47,0.0,0.0,83,0.00,,,0.00,Wunderground v.1.15,2013-10-14 05:57:00,
2013-10-14 01:58:00,26.8,22.3,30.46,NE,47,0.0,0.0,83,0.00,,,0.00,Wunderground v.1.15,2013-10-14 05:58:00,
2013-10-14 01:59:00,26.8,22.3,30.46,NE,47,0.0,0.0,83,0.00,,,0.00,Wunderground v.1.15,2013-10-14 05:59:00,
2013-10-14 02:00:00,26.8,22.3,30.46,NE,47,0.0,0.0,83,0.00,,,0.00,Wunderground v.1.15,2013-10-14 06:00:00,
2013-10-14 02:01:00,63.1,61.3,30.12,ENE,75,0.0,0.0,94,0.00,,,0.00,Wunderground v.1.15,2013-10-14 06:01:00,
2013-10-14 02:02:00,26.7,22.2,30.47,NE,47,0.0,0.0,83,0.00,,,0.00,Wunderground v.1.15,2013-10-14 06:02:00,
2013-10-14 02:03:00,26.7,22.2,30.46,NE,47,0.0,0.0,83,0.00,,,0.00,Wunderground v.1.15,2013-10-14 06:03:00,
2013-10-14 02:04:00,26.7,22.2,30.46,NE,47,0.0,0.0,83,0.00,,,0.00,Wunderground v.1.15,2013-10-14 06:04:00,
2013-10-14 02:05:00,26.7,22.2,30.46,NE,47,0.0,0.0,83,0.00,,,0.00,Wunderground v.1.15,2013-10-14 06:05:00,
2013-10-14 02:06:00,63.2,61.4,30.12,ENE,78,0.0,0.0,94,0.00,,,0.00,Wunderground v.1.15,2013-10-14 06:06:00,
2013-10-14 02:07:00,26.7,22.2,30.46,NE,47,0.0,0.0,83,0.00,,,0.00,Wunderground v.1.15,2013-10-14 06:07:00,
2013-10-14 02:08:00,26.8,22.6,30.46,NE,47,0.0,0.0,84,0.00,,,0.00,Wunderground v.1.15,2013-10-14 06:08:00,
2013-10-14 02:11:00,63.4,61.3,30.12,ENE,78,0.0,0.0,93,0.00,,,0.00,Wunderground v.1.15,2013-10-14 06:11:00,
2013-10-14 02:16:00,63.6,61.5,30.13,ENE,77,0.0,0.0,93,0.00,,,0.00,Wunderground v.1.15,2013-10-14 06:16:00,
2013-10-14 02:21:00,63.7,61.6,30.13,NE,38,0.0,0.0,93,0.00,,,0.00,Wunderground v.1.15,2013-10-14 06:21:00,
2013-10-14 02:26:00,63.8,61.7,30.12,NE,38,0.0,0.0,93,0.00,,,0.00,Wunderground v.1.15,2013-10-14 06:26:00,
2013-10-14 02:31:00,63.9,61.8,30.12,NE,38,0.0,0.0,93,0.00,,,0.00,Wunderground v.1.15,2013-10-14 06:31:00,
2013-10-14 02:36:00,63.9,61.8,30.12,NE,38,0.0,0.0,93,0.00,,,0.00,Wunderground v.1.15,2013-10-14 06:36:00,
2013-10-14 02:41:00,63.8,61.1,30.12,NE,38,0.0,0.0,91,0.00,,,0.00,Wunderground v.1.15,2013-10-14 06:41:00,
2013-10-14 02:46:00,63.6,60.9,30.12,NE,38,0.0,0.0,91,0.00,,,0.00,Wunderground v.1.15,2013-10-14 06:46:00,
2013-10-14 02:51:00,63.4,61.0,30.12,NE,38,0.0,0.0,92,0.00,,,0.00,Wunderground v.1.15,2013-10-14 06:51:00,
2013-10-14 02:56:00,63.3,60.9,30.12,NE,38,0.0,0.0,92,0.00,,,0.00,Wunderground v.1.15,2013-10-14 06:56:00,
2013-10-14 03:01:00,63.3,61.2,30.12,NE,38,0.0,0.0,93,0.00,,,0.00,Wunderground v.1.15,2013-10-14 07:01:00,
2013-10-14 03:06:00,63.4,61.3,30.11,NE,38,0.0,0.0,93,0.00,,,0.00,Wunderground v.1.15,2013-10-14 07:06:00,
2013-10-14 03:11:00,63.5,61.4,30.11,NE,38,0.0,0.0,93,0.00,,,0.00,Wunderground v.1.15,2013-10-14 07:11:00,
2013-10-14 03:16:00,63.7,61.6,30.11,NE,38,0.0,0.0,93,0.00,,,0.00,Wunderground v.1.15,2013-10-14 07:16:00,
2013-10-14 03:21:00,63.8,61.7,30.11,ENE,58,0.0,0.0,93,0.00,,,0.00,Wunderground v.1.15,2013-10-14 07:21:00,
2013-10-14 03:26:00,64.0,61.9,30.11,ENE,72,0.0,0.0,93,0.00,,,0.00,Wunderground v.1.15,2013-10-14 07:26:00,
2013-10-14 03:31:00,64.1,61.7,30.11,ENE,72,0.0,0.0,92,0.00,,,0.00,Wunderground v.1.15,2013-10-14 07:31:00,
2013-10-14 03:36:00,64.2,61.8,30.11,SW,225,0.0,0.0,92,0.00,,,0.00,Wunderground v.1.15,2013-10-14 07:36:00,
2013-10-14 03:41:00,64.3,61.9,30.11,ENE,76,0.0,4.0,92,0.00,,,0.00,Wunderground v.1.15,2013-10-14 07:41:00,
2013-10-14 03:46:00,64.4,62.0,30.11,NE,56,3.0,3.0,92,0.00,,,0.00,Wunderground v.1.15,2013-10-14 07:46:00,
2013-10-14 03:51:00,64.5,61.8,30.11,ENE,57,0.0,5.0,91,0.00,,,0.00,Wunderground v.1.15,2013-10-14 07:51:00,
2013-10-14 03:57:00,64.7,62.0,30.11,ENE,57,0.0,0.0,91,0.00,,,0.00,Wunderground v.1.15,2013-10-14 07:57:00,
2013-10-14 04:02:00,64.8,62.1,30.11,ENE,58,0.0,0.0,91,0.00,,,0.00,Wunderground v.1.15,2013-10-14 08:02:00,
2013-10-14 04:07:00,64.8,62.1,30.11,East,94,0.0,0.0,91,0.00,,,0.00,Wunderground v.1.15,2013-10-14 08:07:00,
2013-10-14 04:12:00,64.9,61.9,30.11,East,80,0.0,2.0,90,0.00,,,0.00,Wunderground v.1.15,2013-10-14 08:12:00,
2013-10-14 04:17:00,65.0,62.0,30.11,East,80,0.0,0.0,90,0.00,,,0.00,Wunderground v.1.15,2013-10-14 08:17:00,
2013-10-14 04:22:00,65.1,61.8,30.11,ENE,76,0.0,1.0,89,0.00,,,0.00,Wunderground v.1.15,2013-10-14 08:22:00,
2013-10-14 04:27:00,65.2,61.9,30.12,ENE,78,0.0,0.0,89,0.00,,,0.00,Wunderground v.1.15,2013-10-14 08:27:00,
2013-10-14 04:32:00,65.2,61.9,30.12,ENE,76,0.0,3.0,89,0.00,,,0.00,Wunderground v.1.15,2013-10-14 08:32:00,
2013-10-14 04:37:00,65.2,61.9,30.12,ENE,77,5.0,6.0,89,0.00,,,0.00,Wunderground v.1.15,2013-10-14 08:37:00,
2013-10-14 04:42:00,65.3,62.0,30.11,ENE,78,5.0,10.0,89,0.00,,,0.00,Wunderground v.1.15,2013-10-14 08:42:00,
2013-10-14 04:47:00,65.4,61.8,30.11,East,79,0.0,3.0,88,0.00,,,0.00,Wunderground v.1.15,2013-10-14 08:47:00,
2013-10-14 04:52:00,65.4,61.8,30.11,ENE,76,0.0,5.0,88,0.00,,,0.00,Wunderground v.1.15,2013-10-14 08:52:00,
2013-10-14 04:57:00,65.5,61.9,30.11,ENE,72,2.0,3.0,88,0.00,,,0.00,Wunderground v.1.15,2013-10-14 08:57:00,
2013-10-14 05:02:00,65.5,61.9,30.11,ENE,65,0.0,3.0,88,0.00,,,0.00,Wunderground v.1.15,2013-10-14 09:02:00,
2013-10-14 05:07:00,65.5,61.9,30.11,ENE,66,1.0,3.0,88,0.00,,,0.00,Wunderground v.1.15,2013-10-14 09:07:00,
2013-10-14 05:12:00,65.5,61.9,30.11,ENE,67,0.0,3.0,88,0.00,,,0.00,Wunderground v.1.15,2013-10-14 09:12:00,
2013-10-14 05:17:00,65.5,61.9,30.11,ENE,58,0.0,0.0,88,0.00,,,0.00,Wunderground v.1.15,2013-10-14 09:17:00,
2013-10-14 05:22:00,65.5,61.9,30.11,ENE,58,1.0,3.0,88,0.00,,,0.00,Wunderground v.1.15,2013-10-14 09:22:00,
2013-10-14 05:27:00,65.5,61.9,30.11,ENE,70,0.0,0.0,88,0.00,,,0.00,Wunderground v.1.15,2013-10-14 09:27:00,
2013-10-14 05:32:00,65.6,61.9,30.12,ENE,69,0.0,2.0,88,0.00,,,0.00,Wunderground v.1.15,2013-10-14 09:32:00,
2013-10-14 05:37:00,65.6,61.9,30.12,ENE,69,0.0,0.0,88,0.00,,,0.00,Wunderground v.1.15,2013-10-14 09:37:00,
2013-10-14 05:42:00,65.6,61.9,30.12,ENE,70,0.0,2.0,88,0.00,,,0.00,Wunderground v.1.15,2013-10-14 09:42:00,
2013-10-14 05:47:00,65.6,61.9,30.12,ENE,59,0.0,0.0,88,0.00,,,0.00,Wunderground v.1.15,2013-10-14 09:47:00,
2013-10-14 05:52:00,65.6,61.6,30.12,ENE,75,0.0,0.0,87,0.00,,,0.00,Wunderground v.1.15,2013-10-14 09:52:00,
2013-10-14 05:57:00,65.7,61.7,30.12,ENE,74,0.0,1.0,87,0.00,,,0.00,Wunderground v.1.15,2013-10-14 09:57:00,
2013-10-14 06:02:00,65.7,61.7,30.12,ENE,74,0.0,1.0,87,0.00,,,0.00,Wunderground v.1.15,2013-10-14 10:02:00,
2013-10-14 06:07:00,65.7,62.0,30.12,NE,46,0.0,2.0,88,0.00,,,0.00,Wunderground v.1.15,2013-10-14 10:07:00,
2013-10-14 06:12:00,65.7,62.0,30.12,NE,46,0.0,2.0,88,0.00,,,0.00,Wunderground v.1.15,2013-10-14 10:12:00,
2013-10-14 06:17:00,65.7,62.0,30.12,NE,46,0.0,0.0,88,0.00,,,0.00,Wunderground v.1.15,2013-10-14 10:17:00,
2013-10-14 06:22:00,65.7,62.0,30.12,ENE,67,0.0,4.0,88,0.00,,,0.00,Wunderground v.1.15,2013-10-14 10:22:00,
2013-10-14 06:27:00,65.7,62.0,30.13,ENE,67,0.0,1.0,88,0.00,,,0.00,Wunderground v.1.15,2013-10-14 10:27:00,
2013-10-14 06:32:00,65.7,61.7,30.12,ENE,68,3.0,4.0,87,0.00,,,0.00,Wunderground v.1.15,2013-10-14 10:32:00,
2013-10-14 06:37:00,65.7,61.4,30.13,East,82,2.0,3.0,86,0.00,,,0.00,Wunderground v.1.15,2013-10-14 10:37:00,
2013-10-14 06:42:00,65.8,61.5,30.13,ENE,61,2.0,3.0,86,0.00,,,0.00,Wunderground v.1.15,2013-10-14 10:42:00,
2013-10-14 06:47:00,65.8,61.5,30.12,ENE,74,1.0,4.0,86,0.00,,,0.00,Wunderground v.1.15,2013-10-14 10:47:00,
2013-10-14 06:52:00,65.8,61.5,30.12,ENE,61,4.0,6.0,86,0.00,,,0.00,Wunderground v.1.15,2013-10-14 10:52:00,
2013-10-14 06:57:00,65.8,61.5,30.12,ENE,67,3.0,7.0,86,0.00,,,0.00,Wunderground v.1.15,2013-10-14 10:57:00,
2013-10-14 07:02:00,65.8,61.5,30.13,ENE,69,1.0,7.0,86,0.00,,,0.00,Wunderground v.1.15,2013-10-14 11:02:00,
2013-10-14 07:08:00,65.8,61.5,30.12,ENE,69,1.0,3.0,86,0.00,,,0.00,Wunderground v.1.15,2013-10-14 11:08:00,
2013-10-14 07:13:00,65.8,61.5,30.13,ENE,61,4.0,6.0,86,0.00,,,0.00,Wunderground v.1.15,2013-10-14 11:13:00,
2013-10-14 07:18:00,65.7,61.4,30.13,ENE,61,1.0,3.0,86,0.00,,,0.00,Wunderground v.1.15,2013-10-14 11:18:00,
2013-10-14 07:23:00,65.7,61.7,30.13,East,90,0.0,4.0,87,0.00,,,0.00,Wunderground v.1.15,2013-10-14 11:23:00,
2013-10-14 07:28:00,65.6,61.6,30.13,ENE,69,3.0,6.0,87,0.00,,,0.00,Wunderground v.1.15,2013-10-14 11:28:00,
2013-10-14 07:33:00,65.6,61.6,30.13,ENE,60,4.0,6.0,87,0.00,,,0.00,Wunderground v.1.15,2013-10-14 11:33:00,
2013-10-14 07:38:00,65.5,61.5,30.13,NE,36,0.0,5.0,87,0.00,,,0.00,Wunderground v.1.15,2013-10-14 11:38:00,
2013-10-14 07:43:00,65.5,61.5,30.13,ENE,68,3.0,5.0,87,0.00,,,0.00,Wunderground v.1.15,2013-10-14 11:43:00,
2013-10-14 07:48:00,65.5,61.5,30.13,NE,49,3.0,6.0,87,0.00,,,0.00,Wunderground v.1.15,2013-10-14 11:48:00,
2013-10-14 07:53:00,65.4,61.4,30.13,ENE,64,1.0,6.0,87,0.00,,,0.00,Wunderground v.1.15,2013-10-14 11:53:00,
2013-10-14 07:58:00,65.5,61.5,30.14,ENE,75,0.0,3.0,87,0.00,,,0.00,Wunderground v.1.15,2013-10-14 11:58:00,
2013-10-14 08:03:00,65.5,61.5,30.14,ENE,67,4.0,5.0,87,0.00,,,0.00,Wunderground v.1.15,2013-10-14 12:03:00,
2013-10-14 08:08:00,65.4,61.4,30.14,ENE,67,0.0,2.0,87,0.00,,,0.00,Wunderground v.1.15,2013-10-14 12:08:00,
2013-10-14 08:13:00,65.4,61.4,30.14,ENE,74,0.0,4.0,87,0.00,,,0.00,Wunderground v.1.15,2013-10-14 12:13:00,
2013-10-14 08:18:00,65.5,61.5,30.15,NE,56,0.0,5.0,87,0.00,,,0.00,Wunderground v.1.15,2013-10-14 12:18:00,
2013-10-14 08:23:00,65.5,61.5,30.15,ENE,62,0.0,5.0,87,0.00,,,0.00,Wunderground v.1.15,2013-10-14 12:23:00,
2013-10-14 08:28:00,65.5,61.5,30.15,ENE,67,0.0,1.0,87,0.00,,,0.00,Wunderground v.1.15,2013-10-14 12:28:00,
2013-10-14 08:33:00,65.6,61.6,30.15,NE,45,1.0,3.0,87,0.00,,,0.00,Wunderground v.1.15,2013-10-14 12:33:00,
2013-10-14 08:38:00,65.6,61.6,30.15,ENE,71,1.0,6.0,87,0.00,,,0.00,Wunderground v.1.15,2013-10-14 12:38:00,
2013-10-14 08:43:00,65.6,61.6,30.15,ENE,70,4.0,8.0,87,0.00,,,0.00,Wunderground v.1.15,2013-10-14 12:43:00,
2013-10-14 08:48:00,65.7,61.7,30.16,NE,49,0.0,3.0,87,0.00,,,0.00,Wunderground v.1.15,2013-10-14 12:48:00,
2013-10-14 08:54:00,65.7,61.7,30.16,ENE,73,0.0,4.0,87,0.00,,,0.00,Wunderground v.1.15,2013-10-14 12:54:00,
2013-10-14 08:59:00,65.8,61.8,30.16,ENE,65,3.0,5.0,87,0.00,,,0.00,Wunderground v.1.15,2013-10-14 12:59:00,
2013-10-14 09:04:00,65.7,62.0,30.16,ENE,78,1.0,5.0,88,0.00,,,0.00,Wunderground v.1.15,2013-10-14 13:04:00,
2013-10-14 09:09:00,65.7,62.0,30.16,ENE,77,2.0,2.0,88,0.00,,,0.00,Wunderground v.1.15,2013-10-14 13:09:00,
2013-10-14 09:14:00,65.6,61.9,30.16,ENE,66,0.0,3.0,88,0.00,,,0.00,Wunderground v.1.15,2013-10-14 13:14:00,
2013-10-14 09:19:00,65.5,62.2,30.17,NE,41,2.0,5.0,89,0.00,,,0.00,Wunderground v.1.15,2013-10-14 13:19:00,
2013-10-14 09:24:00,65.3,62.0,30.17,ENE,61,2.0,6.0,89,0.00,,,0.00,Wunderground v.1.15,2013-10-14 13:24:00,
2013-10-14 09:29:00,65.1,62.1,30.17,ENE,74,1.0,5.0,90,0.00,,,0.00,Wunderground v.1.15,2013-10-14 13:29:00,
2013-10-14 09:34:00,65.0,62.3,30.16,ENE,73,5.0,6.0,91,0.00,,,0.00,Wunderground v.1.15,2013-10-14 13:34:00,
2013-10-14 09:39:00,64.9,61.9,30.16,ENE,72,3.0,4.0,90,0.00,,,0.00,Wunderground v.1.15,2013-10-14 13:39:00,
2013-10-14 09:44:00,64.9,61.9,30.16,ENE,69,3.0,4.0,90,0.00,,,0.00,Wunderground v.1.15,2013-10-14 13:44:00,
2013-10-14 09:49:00,64.9,62.2,30.16,NE,52,4.0,4.0,91,0.00,,,0.00,Wunderground v.1.15,2013-10-14 13:49:00,
2013-10-14 09:54:00,64.9,62.2,30.16,ENE,73,3.0,5.0,91,0.00,,,0.00,Wunderground v.1.15,2013-10-14 13:54:00,
2013-10-14 09:59:00,64.9,62.2,30.16,ENE,64,2.0,3.0,91,0.00,,,0.00,Wunderground v.1.15,2013-10-14 13:59:00,
2013-10-14 10:04:00,65.0,62.3,30.16,NE,49,0.0,4.0,91,0.00,,,0.00,Wunderground v.1.15,2013-10-14 14:04:00,
2013-10-14 10:09:00,65.2,62.5,30.16,ENE,57,0.0,1.0,91,0.00,,,0.00,Wunderground v.1.15,2013-10-14 14:09:00,
2013-10-14 10:14:00,65.3,62.6,30.16,ENE,78,0.0,5.0,91,0.00,,,0.00,Wunderground v.1.15,2013-10-14 14:14:00,
2013-10-14 10:19:00,65.2,62.8,30.16,NE,53,2.0,5.0,92,0.00,,,0.00,Wunderground v.1.15,2013-10-14 14:19:00,
2013-10-14 10:24:00,65.0,62.6,30.16,ENE,61,1.0,5.0,92,0.00,,,0.00,Wunderground v.1.15,2013-10-14 14:24:00,
2013-10-14 10:29:00,64.8,62.7,30.16,ENE,64,2.0,5.0,93,0.00,,,0.00,Wunderground v.1.15,2013-10-14 14:29:00,
2013-10-14 10:30:00,40.6,30.9,30.50,NE,48,0.0,0.0,68,0.00,,,0.00,Wunderground v.1.15,2013-10-14 14:30:00,
2013-10-14 10:31:00,40.8,30.7,30.50,NE,48,0.0,0.0,67,0.00,,,0.00,Wunderground v.1.15,2013-10-14 14:31:00,
2013-10-14 10:32:00,41.0,30.9,30.50,NE,48,0.0,0.0,67,0.00,,,0.00,Wunderground v.1.15,2013-10-14 14:32:00,
2013-10-14 10:33:00,41.2,30.7,30.50,NE,48,0.0,0.0,66,0.00,,,0.00,Wunderground v.1.15,2013-10-14 14:33:00,
2013-10-14 10:34:00,64.6,62.5,30.16,ENE,57,0.0,5.0,93,0.00,,,0.00,Wunderground v.1.15,2013-10-14 14:34:00,
2013-10-14 10:40:00,64.6,62.8,30.16,ENE,60,0.0,4.0,94,0.00,,,0.00,Wunderground v.1.15,2013-10-14 14:40:00,
2013-10-14 10:45:00,64.7,62.9,30.16,ENE,60,0.0,4.0,94,0.00,,,0.00,Wunderground v.1.15,2013-10-14 14:45:00,
2013-10-14 10:50:00,64.8,62.7,30.17,ENE,72,2.0,6.0,93,0.00,,,0.00,Wunderground v.1.15,2013-10-14 14:50:00,
2013-10-14 10:55:00,65.0,62.9,30.16,NE,42,0.0,6.0,93,0.00,,,0.00,Wunderground v.1.15,2013-10-14 14:55:00,
2013-10-14 11:00:00,65.0,62.9,30.16,NE,42,3.0,5.0,93,0.00,,,0.00,Wunderground v.1.15,2013-10-14 15:00:00,
2013-10-14 11:05:00,65.1,62.7,30.16,ENE,58,2.0,5.0,92,0.00,,,0.00,Wunderground v.1.15,2013-10-14 15:05:00,
2013-10-14 11:10:00,65.2,62.8,30.16,NE,54,3.0,4.0,92,0.00,,,0.00,Wunderground v.1.15,2013-10-14 15:10:00,
2013-10-14 11:15:00,65.3,62.9,30.16,ENE,69,0.0,4.0,92,0.00,,,0.00,Wunderground v.1.15,2013-10-14 15:15:00,
2013-10-14 11:20:00,65.5,62.8,30.16,ENE,74,3.0,7.0,91,0.00,,,0.00,Wunderground v.1.15,2013-10-14 15:20:00,
2013-10-14 11:25:00,65.6,62.6,30.16,ENE,67,0.0,7.0,90,0.00,,,0.00,Wunderground v.1.15,2013-10-14 15:25:00,
2013-10-14 11:30:00,65.9,62.9,30.16,ENE,63,1.0,4.0,90,0.00,,,0.00,Wunderground v.1.15,2013-10-14 15:30:00,
2013-10-14 11:35:00,66.2,62.9,30.16,ENE,74,0.0,4.0,89,0.00,,,0.00,Wunderground v.1.15,2013-10-14 15:35:00,
2013-10-14 11:40:00,66.5,62.8,30.15,NE,38,2.0,5.0,88,0.00,,,0.00,Wunderground v.1.15,2013-10-14 15:40:00,
2013-10-14 11:45:00,66.9,62.9,30.15,ENE,67,3.0,7.0,87,0.00,,,0.00,Wunderground v.1.15,2013-10-14 15:45:00,
2013-10-14 11:50:00,67.1,62.8,30.15,East,80,0.0,6.0,86,0.00,,,0.00,Wunderground v.1.15,2013-10-14 15:50:00,
2013-10-14 11:55:00,67.3,63.0,30.15,NE,40,3.0,6.0,86,0.00,,,0.00,Wunderground v.1.15,2013-10-14 15:55:00,
2013-10-14 12:00:00,67.4,63.1,30.15,NE,55,4.0,6.0,86,0.00,,,0.00,Wunderground v.1.15,2013-10-14 16:00:00,
2013-10-14 12:05:00,67.4,62.7,30.15,ENE,68,2.0,6.0,85,0.00,,,0.00,Wunderground v.1.15,2013-10-14 16:05:00,
2013-10-14 12:10:00,67.4,62.7,30.14,NE,55,3.0,6.0,85,0.00,,,0.00,Wunderground v.1.15,2013-10-14 16:10:00,
2013-10-14 12:15:00,67.5,62.8,30.15,ENE,71,3.0,7.0,85,0.00,,,0.00,Wunderground v.1.15,2013-10-14 16:15:00,
2013-10-14 12:20:00,67.5,62.5,30.15,ENE,62,0.0,6.0,84,0.00,,,0.00,Wunderground v.1.15,2013-10-14 16:20:00,
2013-10-14 12:25:00,67.6,62.9,30.15,East,84,1.0,6.0,85,0.00,,,0.00,Wunderground v.1.15,2013-10-14 16:25:00,
2013-10-14 12:30:00,67.8,62.8,30.15,East,83,0.0,3.0,84,0.00,,,0.00,Wunderground v.1.15,2013-10-14 16:30:00,
2013-10-14 12:35:00,67.9,62.9,30.15,East,86,0.0,3.0,84,0.00,,,0.00,Wunderground v.1.15,2013-10-14 16:35:00,
2013-10-14 12:40:00,68.0,63.0,30.15,NE,53,0.0,3.0,84,0.00,,,0.00,Wunderground v.1.15,2013-10-14 16:40:00,
2013-10-14 12:45:00,68.0,63.3,30.15,ENE,67,0.0,5.0,85,0.00,,,0.00,Wunderground v.1.15,2013-10-14 16:45:00,
2013-10-14 12:50:00,68.0,63.3,30.14,ENE,72,0.0,4.0,85,0.00,,,0.00,Wunderground v.1.15,2013-10-14 16:50:00,
2013-10-14 12:55:00,68.1,63.1,30.14,NE,50,0.0,5.0,84,0.00,,,0.00,Wunderground v.1.15,2013-10-14 16:55:00,
2013-10-14 13:00:00,68.3,62.9,30.14,NE,36,0.0,3.0,83,0.00,,,0.00,Wunderground v.1.15,2013-10-14 17:00:00,
2013-10-14 13:05:00,68.5,63.5,30.13,NNE,27,2.0,5.0,84,0.00,,,0.00,Wunderground v.1.15,2013-10-14 17:05:00,
2013-10-14 13:10:00,68.4,63.0,30.14,NE,35,4.0,8.0,83,0.00,,,0.00,Wunderground v.1.15,2013-10-14 17:10:00,
2013-10-14 13:15:00,68.0,63.0,30.13,NE,56,4.0,8.0,84,0.00,,,0.00,Wunderground v.1.15,2013-10-14 17:15:00,
2013-10-14 13:20:00,67.7,63.0,30.13,ENE,59,3.0,7.0,85,0.00,,,0.00,Wunderground v.1.15,2013-10-14 17:20:00,
2013-10-14 13:25:00,67.7,63.0,30.13,NE,55,3.0,7.0,85,0.00,,,0.00,Wunderground v.1.15,2013-10-14 17:25:00,
2013-10-14 13:30:00,67.7,63.0,30.13,NE,47,3.0,8.0,85,0.00,,,0.00,Wunderground v.1.15,2013-10-14 17:30:00,
2013-10-14 13:35:00,67.9,63.2,30.12,East,99,0.0,8.0,85,0.00,,,0.00,Wunderground v.1.15,2013-10-14 17:35:00,
2013-10-14 13:40:00,68.0,63.0,30.12,ENE,77,5.0,9.0,84,0.00,,,0.00,Wunderground v.1.15,2013-10-14 17:40:00,
2013-10-14 13:45:00,67.9,62.9,30.12,ENE,77,0.0,9.0,84,0.00,,,0.00,Wunderground v.1.15,2013-10-14 17:45:00,
2013-10-14 13:50:00,68.1,63.1,30.12,East,86,2.0,5.0,84,0.00,,,0.00,Wunderground v.1.15,2013-10-14 17:50:00,
2013-10-14 13:55:00,68.2,63.2,30.12,ENE,75,3.0,6.0,84,0.00,,,0.00,Wunderground v.1.15,2013-10-14 17:55:00,
2013-10-14 14:00:00,68.3,62.9,30.12,ENE,65,1.0,6.0,83,0.00,,,0.00,Wunderground v.1.15,2013-10-14 18:00:00,
2013-10-14 14:05:00,68.3,62.9,30.11,NE,48,2.0,6.0,83,0.00,,,0.00,Wunderground v.1.15,2013-10-14 18:05:00,
2013-10-14 14:11:00,68.4,63.0,30.11,ENE,74,1.0,5.0,83,0.00,,,0.00,Wunderground v.1.15,2013-10-14 18:11:00,
2013-10-14 14:16:00,68.4,63.0,30.11,NE,51,1.0,5.0,83,0.00,,,0.00,Wunderground v.1.15,2013-10-14 18:16:00,
2013-10-14 14:21:00,68.4,62.7,30.11,ENE,71,3.0,6.0,82,0.00,,,0.00,Wunderground v.1.15,2013-10-14 18:21:00,
2013-10-14 14:26:00,68.4,62.7,30.11,ENE,69,1.0,6.0,82,0.00,,,0.00,Wunderground v.1.15,2013-10-14 18:26:00,
2013-10-14 14:31:00,68.3,62.6,30.11,ENE,71,0.0,7.0,82,0.00,,,0.00,Wunderground v.1.15,2013-10-14 18:31:00,
2013-10-14 14:36:00,68.4,63.0,30.11,ENE,71,0.0,7.0,83,0.00,,,0.00,Wunderground v.1.15,2013-10-14 18:36:00,
2013-10-14 14:41:00,68.5,62.8,30.10,ENE,74,0.0,3.0,82,0.00,,,0.00,Wunderground v.1.15,2013-10-14 18:41:00,
2013-10-14 14:46:00,68.5,62.8,30.10,NE,54,0.0,4.0,82,0.00,,,0.00,Wunderground v.1.15,2013-10-14 18:46:00,
2013-10-14 14:51:00,68.5,62.8,30.10,ENE,74,1.0,5.0,82,0.00,,,0.00,Wunderground v.1.15,2013-10-14 18:51:00,
2013-10-14 14:56:00,68.5,63.1,30.10,NE,49,1.0,1.0,83,0.00,,,0.00,Wunderground v.1.15,2013-10-14 18:56:00,
2013-10-14 15:01:00,68.6,63.2,30.10,ENE,71,0.0,5.0,83,0.00,,,0.00,Wunderground v.1.15,2013-10-14 19:01:00,
2013-10-14 15:06:00,68.9,63.5,30.10,ENE,76,1.0,2.0,83,0.00,,,0.00,Wunderground v.1.15,2013-10-14 19:06:00,
2013-10-14 15:11:00,69.0,62.9,30.10,East,79,1.0,5.0,81,0.00,,,0.00,Wunderground v.1.15,2013-10-14 19:11:00,
2013-10-14 15:16:00,69.1,63.0,30.10,ENE,71,1.0,1.0,81,0.00,,,0.00,Wunderground v.1.15,2013-10-14 19:16:00,
2013-10-14 15:21:00,69.1,63.0,30.10,ENE,57,7.0,7.0,81,0.00,,,0.00,Wunderground v.1.15,2013-10-14 19:21:00,
2013-10-14 15:26:00,68.9,62.8,30.10,ENE,65,3.0,3.0,81,0.00,,,0.00,Wunderground v.1.15,2013-10-14 19:26:00,
2013-10-14 15:31:00,68.7,63.0,30.10,ENE,67,0.0,5.0,82,0.00,,,0.00,Wunderground v.1.15,2013-10-14 19:31:00,
2013-10-14 15:36:00,68.8,63.1,30.10,ENE,73,4.0,4.0,82,0.00,,,0.00,Wunderground v.1.15,2013-10-14 19:36:00,
2013-10-14 15:41:00,68.8,62.7,30.10,ENE,62,3.0,7.0,81,0.00,,,0.00,Wunderground v.1.15,2013-10-14 19:41:00,
2013-10-14 15:47:00,68.8,63.1,30.10,ENE,69,2.0,3.0,82,0.00,,,0.00,Wunderground v.1.15,2013-10-14 19:47:00,
2013-10-14 15:52:00,68.8,63.1,30.10,ENE,69,2.0,3.0,82,0.00,,,0.00,Wunderground v.1.15,2013-10-14 19:52:00,
2013-10-14 15:57:00,68.8,62.7,30.10,ENE,76,2.0,3.0,81,0.00,,,0.00,Wunderground v.1.15,2013-10-14 19:57:00,
2013-10-14 16:02:00,68.7,63.0,30.10,ENE,67,0.0,4.0,82,0.00,,,0.00,Wunderground v.1.15,2013-10-14 20:02:00,
2013-10-14 16:07:00,68.7,63.0,30.10,ENE,73,0.0,1.0,82,0.00,,,0.00,Wunderground v.1.15,2013-10-14 20:07:00,
2013-10-14 16:12:00,68.6,62.9,30.10,ENE,71,3.0,3.0,82,0.00,,,0.00,Wunderground v.1.15,2013-10-14 20:12:00,
2013-10-14 16:17:00,68.6,62.9,30.10,ENE,72,0.0,3.0,82,0.00,,,0.00,Wunderground v.1.15,2013-10-14 20:17:00,
2013-10-14 16:22:00,68.5,62.8,30.10,ENE,76,0.0,3.0,82,0.00,,,0.00,Wunderground v.1.15,2013-10-14 20:22:00,
2013-10-14 16:27:00,68.5,62.8,30.10,ENE,74,0.0,0.0,82,0.00,,,0.00,Wunderground v.1.15,2013-10-14 20:27:00,
2013-10-14 16:32:00,68.5,62.8,30.09,East,98,0.0,3.0,82,0.00,,,0.00,Wunderground v.1.15,2013-10-14 20:32:00,
2013-10-14 16:37:00,68.5,62.8,30.10,ENE,78,0.0,3.0,82,0.00,,,0.00,Wunderground v.1.15,2013-10-14 20:37:00,
2013-10-14 16:42:00,68.6,62.9,30.10,NNE,32,2.0,3.0,82,0.00,,,0.00,Wunderground v.1.15,2013-10-14 20:42:00,
2013-10-14 16:47:00,68.6,63.2,30.10,ENE,60,3.0,3.0,83,0.00,,,0.00,Wunderground v.1.15,2013-10-14 20:47:00,
2013-10-14 16:52:00,68.5,63.1,30.10,NE,53,0.0,4.0,83,0.00,,,0.00,Wunderground v.1.15,2013-10-14 20:52:00,
2013-10-14 16:57:00,68.4,63.4,30.10,NE,53,1.0,3.0,84,0.00,,,0.00,Wunderground v.1.15,2013-10-14 20:57:00,
2013-10-14 17:02:00,68.2,63.2,30.10,ENE,65,2.0,4.0,84,0.00,,,0.00,Wunderground v.1.15,2013-10-14 21:02:00,
2013-10-14 17:07:00,68.0,63.0,30.10,ENE,63,2.0,3.0,84,0.00,,,0.00,Wunderground v.1.15,2013-10-14 21:07:00,
2013-10-14 17:12:00,67.9,62.9,30.10,ENE,66,0.0,5.0,84,0.00,,,0.00,Wunderground v.1.15,2013-10-14 21:12:00,
2013-10-14 17:17:00,67.9,62.9,30.10,ENE,66,0.0,5.0,84,0.00,,,0.00,Wunderground v.1.15,2013-10-14 21:17:00,
2013-10-14 17:22:00,67.9,62.9,30.10,ENE,78,3.0,6.0,84,0.00,,,0.00,Wunderground v.1.15,2013-10-14 21:22:00,
2013-10-14 17:27:00,67.8,62.8,30.10,ENE,68,0.0,2.0,84,0.00,,,0.00,Wunderground v.1.15,2013-10-14 21:27:00,
2013-10-14 17:32:00,67.8,62.8,30.10,ENE,66,3.0,5.0,84,0.00,,,0.00,Wunderground v.1.15,2013-10-14 21:32:00,
2013-10-14 17:37:00,67.7,63.0,30.10,ENE,66,0.0,1.0,85,0.00,,,0.00,Wunderground v.1.15,2013-10-14 21:37:00,
2013-10-14 17:42:00,67.7,63.0,30.10,ENE,66,0.0,3.0,85,0.00,,,0.00,Wunderground v.1.15,2013-10-14 21:42:00,
2013-10-14 17:47:00,67.7,63.0,30.10,NE,51,2.0,2.0,85,0.00,,,0.00,Wunderground v.1.15,2013-10-14 21:47:00,
2013-10-14 17:52:00,67.7,63.0,30.10,NE,51,0.0,4.0,85,0.00,,,0.00,Wunderground v.1.15,2013-10-14 21:52:00,
2013-10-14 17:57:00,67.6,62.9,30.11,NE,51,0.0,0.0,85,0.00,,,0.00,Wunderground v.1.15,2013-10-14 21:57:00,
2013-10-14 18:02:00,67.5,62.8,30.11,NE,51,1.0,3.0,85,0.00,,,0.00,Wunderground v.1.15,2013-10-14 22:02:00,
2013-10-14 18:07:00,67.4,62.7,30.11,NE,51,0.0,0.0,85,0.00,,,0.00,Wunderground v.1.15,2013-10-14 22:07:00,
2013-10-14 18:13:00,67.4,62.7,30.10,NE,51,0.0,4.0,85,0.00,,,0.00,Wunderground v.1.15,2013-10-14 22:13:00,
2013-10-14 18:18:00,67.3,63.0,30.11,NE,51,0.0,0.0,86,0.00,,,0.00,Wunderground v.1.15,2013-10-14 22:18:00,
2013-10-14 18:23:00,67.2,62.9,30.11,NE,51,0.0,1.0,86,0.00,,,0.00,Wunderground v.1.15,2013-10-14 22:23:00,
2013-10-14 18:28:00,67.1,62.8,30.11,NE,49,0.0,0.0,86,0.00,,,0.00,Wunderground v.1.15,2013-10-14 22:28:00,
2013-10-14 18:33:00,67.1,62.8,30.11,NE,49,0.0,0.0,86,0.00,,,0.00,Wunderground v.1.15,2013-10-14 22:33:00,
2013-10-14 18:38:00,67.0,62.7,30.11,NE,51,0.0,1.0,86,0.00,,,0.00,Wunderground v.1.15,2013-10-14 22:38:00,
2013-10-14 18:43:00,67.0,62.7,30.11,NE,51,2.0,3.0,86,0.00,,,0.00,Wunderground v.1.15,2013-10-14 22:43:00,
2013-10-14 18:48:00,67.0,62.7,30.11,NE,52,0.0,0.0,86,0.00,,,0.00,Wunderground v.1.15,2013-10-14 22:48:00,
2013-10-14 18:53:00,66.9,62.6,30.11,NE,52,0.0,0.0,86,0.00,,,0.00,Wunderground v.1.15,2013-10-14 22:53:00,
2013-10-14 18:58:00,66.9,62.6,30.11,NE,52,0.0,0.0,86,0.00,,,0.00,Wunderground v.1.15,2013-10-14 22:58:00,
2013-10-14 19:03:00,66.9,62.6,30.11,NE,52,0.0,0.0,86,0.00,,,0.00,Wunderground v.1.15,2013-10-14 23:03:00,
2013-10-14 19:08:00,66.8,62.8,30.11,NE,49,1.0,1.0,87,0.00,,,0.00,Wunderground v.1.15,2013-10-14 23:08:00,
2013-10-14 19:13:00,66.8,62.8,30.11,ENE,57,0.0,5.0,87,0.00,,,0.00,Wunderground v.1.15,2013-10-14 23:13:00,
2013-10-14 19:19:00,66.7,62.7,30.11,ENE,66,0.0,1.0,87,0.00,,,0.00,Wunderground v.1.15,2013-10-14 23:19:00,
2013-10-14 19:24:00,66.6,62.6,30.11,ENE,65,0.0,2.0,87,0.00,,,0.00,Wunderground v.1.15,2013-10-14 23:24:00,
2013-10-14 19:29:00,66.5,62.5,30.12,ENE,65,0.0,0.0,87,0.00,,,0.00,Wunderground v.1.15,2013-10-14 23:29:00,
2013-10-14 19:34:00,66.5,62.5,30.12,ENE,66,0.0,4.0,87,0.00,,,0.00,Wunderground v.1.15,2013-10-14 23:34:00,
2013-10-14 19:39:00,66.4,62.7,30.11,ENE,66,0.0,0.0,88,0.00,,,0.00,Wunderground v.1.15,2013-10-14 23:39:00,
2013-10-14 19:44:00,66.2,62.5,30.12,ENE,66,0.0,0.0,88,0.00,,,0.00,Wunderground v.1.15,2013-10-14 23:44:00,
2013-10-14 19:49:00,66.2,62.5,30.12,ENE,66,0.0,0.0,88,0.00,,,0.00,Wunderground v.1.15,2013-10-14 23:49:00,
2013-10-14 19:54:00,66.1,62.4,30.12,ENE,64,1.0,4.0,88,0.00,,,0.00,Wunderground v.1.15,2013-10-14 23:54:00,
2013-10-14 19:59:00,66.1,62.8,30.12,ENE,62,0.0,0.0,89,0.00,,,0.00,Wunderground v.1.15,2013-10-14 23:59:00,
2013-10-14 20:04:00,66.1,62.8,30.12,NE,41,0.0,5.0,89,0.00,,,0.00,Wunderground v.1.15,2013-10-15 00:04:00,
2013-10-14 20:09:00,66.0,62.7,30.12,NE,38,0.0,0.0,89,0.00,,,0.00,Wunderground v.1.15,2013-10-15 00:09:00,
2013-10-14 20:14:00,65.9,62.6,30.12,ENE,72,0.0,3.0,89,0.00,,,0.00,Wunderground v.1.15,2013-10-15 00:14:00,
2013-10-14 20:19:00,65.9,62.6,30.13,ENE,72,0.0,0.0,89,0.00,,,0.00,Wunderground v.1.15,2013-10-15 00:19:00,
2013-10-14 20:24:00,65.9,62.6,30.13,ENE,72,0.0,0.0,89,0.00,,,0.00,Wunderground v.1.15,2013-10-15 00:24:00,
2013-10-14 20:29:00,65.9,62.6,30.13,ENE,72,0.0,0.0,89,0.00,,,0.00,Wunderground v.1.15,2013-10-15 00:29:00,
2013-10-14 20:34:00,65.9,62.6,30.12,ENE,68,0.0,1.0,89,0.00,,,0.00,Wunderground v.1.15,2013-10-15 00:34:00,
2013-10-14 20:39:00,65.8,62.5,30.13,ENE,68,0.0,0.0,89,0.00,,,0.00,Wunderground v.1.15,2013-10-15 00:39:00,
2013-10-14 20:44:00,65.8,62.5,30.13,ENE,67,0.0,0.0,89,0.00,,,0.00,Wunderground v.1.15,2013-10-15 00:44:00,
2013-10-14 20:49:00,65.8,62.8,30.13,ENE,67,0.0,0.0,90,0.00,,,0.00,Wunderground v.1.15,2013-10-15 00:49:00,
2013-10-14 20:55:00,65.8,62.8,30.13,ENE,67,0.0,0.0,90,0.00,,,0.00,Wunderground v.1.15,2013-10-15 00:55:00,
2013-10-14 20:59:00,65.7,62.7,30.12,ENE,67,0.0,0.0,90,0.00,,,0.00,Wunderground v.1.15,2013-10-15 00:59:00,
2013-10-14 21:05:00,65.7,62.7,30.13,ENE,67,0.0,0.0,90,0.00,,,0.00,Wunderground v.1.15,2013-10-15 01:05:00,
2013-10-14 21:09:00,65.7,62.7,30.13,ENE,67,0.0,0.0,90,0.00,,,0.00,Wunderground v.1.15,2013-10-15 01:09:00,
2013-10-14 21:15:00,65.7,62.7,30.13,ENE,67,0.0,0.0,90,0.00,,,0.00,Wunderground v.1.15,2013-10-15 01:15:00,
2013-10-14 21:20:00,65.7,62.4,30.13,ENE,77,0.0,0.0,89,0.00,,,0.00,Wunderground v.1.15,2013-10-15 01:20:00,
2013-10-14 21:25:00,65.8,62.5,30.13,ENE,77,0.0,0.0,89,0.00,,,0.00,Wunderground v.1.15,2013-10-15 01:25:00,
2013-10-14 21:30:00,65.8,62.5,30.13,ENE,77,0.0,0.0,89,0.00,,,0.00,Wunderground v.1.15,2013-10-15 01:30:00,
2013-10-14 21:35:00,65.8,62.5,30.13,ENE,78,0.0,3.0,89,0.00,,,0.00,Wunderground v.1.15,2013-10-15 01:35:00,
2013-10-14 21:40:00,65.9,62.6,30.13,ENE,78,0.0,0.0,89,0.00,,,0.00,Wunderground v.1.15,2013-10-15 01:40:00,
2013-10-14 21:45:00,65.9,62.2,30.13,ENE,78,0.0,2.0,88,0.00,,,0.00,Wunderground v.1.15,2013-10-15 01:45:00,
2013-10-14 21:50:00,66.0,62.3,30.13,East,88,0.0,0.0,88,0.00,,,0.00,Wunderground v.1.15,2013-10-15 01:50:00,
2013-10-14 21:55:00,66.0,62.3,30.13,ENE,62,0.0,0.0,88,0.00,,,0.00,Wunderground v.1.15,2013-10-15 01:55:00,
2013-10-14 22:00:00,66.1,62.4,30.13,ENE,62,0.0,0.0,88,0.00,,,0.00,Wunderground v.1.15,2013-10-15 02:00:00,
2013-10-14 22:05:00,66.1,62.4,30.13,SE,137,0.0,1.0,88,0.00,,,0.00,Wunderground v.1.15,2013-10-15 02:05:00,
2013-10-14 22:10:00,66.1,62.1,30.13,North,355,0.0,2.0,87,0.00,,,0.00,Wunderground v.1.15,2013-10-15 02:10:00,
2013-10-14 22:15:00,66.1,62.1,30.13,ENE,62,0.0,2.0,87,0.00,,,0.00,Wunderground v.1.15,2013-10-15 02:15:00,
2013-10-14 22:20:00,66.1,62.1,30.13,ESE,111,0.0,7.0,87,0.00,,,0.00,Wunderground v.1.15,2013-10-15 02:20:00,
2013-10-14 22:25:00,66.1,62.1,30.13,East,93,0.0,7.0,87,0.00,,,0.00,Wunderground v.1.15,2013-10-15 02:25:00,
2013-10-14 22:30:00,66.0,62.0,30.13,East,89,0.0,0.0,87,0.00,,,0.00,Wunderground v.1.15,2013-10-15 02:30:00,
2013-10-14 22:36:00,66.0,62.0,30.13,ENE,73,0.0,2.0,87,0.00,,,0.00,Wunderground v.1.15,2013-10-15 02:36:00,
2013-10-14 22:41:00,66.0,62.0,30.13,ENE,73,0.0,0.0,87,0.00,,,0.00,Wunderground v.1.15,2013-10-15 02:41:00,
2013-10-14 22:46:00,66.1,62.1,30.13,ESE,106,0.0,0.0,87,0.00,,,0.00,Wunderground v.1.15,2013-10-15 02:46:00,
2013-10-14 22:51:00,66.1,62.1,30.13,ENE,71,0.0,0.0,87,0.00,,,0.00,Wunderground v.1.15,2013-10-15 02:51:00,
2013-10-14 22:56:00,66.0,62.0,30.13,ENE,72,0.0,0.0,87,0.00,,,0.00,Wunderground v.1.15,2013-10-15 02:56:00,
2013-10-14 23:01:00,66.0,62.0,30.13,SE,130,0.0,0.0,87,0.00,,,0.00,Wunderground v.1.15,2013-10-15 03:01:00,
2013-10-14 23:06:00,66.0,62.0,30.13,SE,126,0.0,0.0,87,0.00,,,0.00,Wunderground v.1.15,2013-10-15 03:06:00,
2013-10-14 23:11:00,65.9,61.9,30.13,ESE,114,0.0,2.0,87,0.00,,,0.00,Wunderground v.1.15,2013-10-15 03:11:00,
2013-10-14 23:16:00,65.9,61.9,30.13,SSW,202,0.0,5.0,87,0.00,,,0.00,Wunderground v.1.15,2013-10-15 03:16:00,
2013-10-14 23:21:00,65.9,61.6,30.13,ENE,71,0.0,0.0,86,0.00,,,0.00,Wunderground v.1.15,2013-10-15 03:21:00,
2013-10-14 23:26:00,65.9,61.6,30.13,East,88,0.0,0.0,86,0.00,,,0.00,Wunderground v.1.15,2013-10-15 03:26:00,
2013-10-14 23:31:00,65.9,61.6,30.13,ENE,75,0.0,0.0,86,0.00,,,0.00,Wunderground v.1.15,2013-10-15 03:31:00,
2013-10-14 23:36:00,65.9,61.6,30.13,ESE,104,0.0,0.0,86,0.00,,,0.00,Wunderground v.1.15,2013-10-15 03:36:00,
2013-10-14 23:41:00,65.8,61.8,30.13,East,86,0.0,0.0,87,0.00,,,0.00,Wunderground v.1.15,2013-10-15 03:41:00,
2013-10-14 23:46:00,65.8,61.8,30.13,East,90,0.0,0.0,87,0.00,,,0.00,Wunderground v.1.15,2013-10-15 03:46:00,
2013-10-14 23:51:00,65.7,61.7,30.13,East,84,0.0,0.0,87,0.00,,,0.00,Wunderground v.1.15,2013-10-15 03:51:00,
2013-10-14 23:56:00,65.7,61.7,30.12,East,79,0.0,0.0,87,0.00,,,0.00,Wunderground v.1.15,2013-10-15 03:56:00,